sensor_id;sensor_type;location;lat;lon;timestamp;pressure;altitude;pressure_sealevel;temperature;humidity
68075;BME280;54864;52.002;5.468;2023-05-25T00:00:12;102466.22;;;11.90;75.82
68075;BME280;54864;52.002;5.468;2023-05-25T00:01:13;102467.13;;;11.89;75.73
68075;BME280;54864;52.002;5.468;2023-05-25T00:02:15;102470.56;;;11.92;75.61
68075;BME280;54864;52.002;5.468;2023-05-25T00:03:16;102461.69;;;11.95;75.05
68075;BME280;54864;52.002;5.468;2023-05-25T00:04:20;102467.13;;;11.89;75.19
68075;BME280;54864;52.002;5.468;2023-05-25T00:05:21;102470.50;;;11.94;75.40
68075;BME280;54864;52.002;5.468;2023-05-25T00:06:29;102467.84;;;11.95;74.95
68075;BME280;54864;52.002;5.468;2023-05-25T00:07:30;102475.06;;;11.87;75.63
68075;BME280;54864;52.002;5.468;2023-05-25T00:08:32;102482.03;;;11.91;75.81
68075;BME280;54864;52.002;5.468;2023-05-25T00:09:33;102478.66;;;11.85;75.94
68075;BME280;54864;52.002;5.468;2023-05-25T00:10:35;102477.66;;;11.90;75.86
68075;BME280;54864;52.002;5.468;2023-05-25T00:11:36;102477.84;;;11.83;75.94
68075;BME280;54864;52.002;5.468;2023-05-25T00:12:38;102477.75;;;11.86;75.93
68075;BME280;54864;52.002;5.468;2023-05-25T00:13:39;102471.69;;;11.82;76.13
68075;BME280;54864;52.002;5.468;2023-05-25T00:14:41;102469.00;;;11.84;75.91
68075;BME280;54864;52.002;5.468;2023-05-25T00:15:44;102472.63;;;11.80;76.23
68075;BME280;54864;52.002;5.468;2023-05-25T00:16:45;102475.25;;;11.80;76.20
68075;BME280;54864;52.002;5.468;2023-05-25T00:17:47;102467.44;;;11.73;76.46
68075;BME280;54864;52.002;5.468;2023-05-25T00:18:49;102469.19;;;11.74;76.28
68075;BME280;54864;52.002;5.468;2023-05-25T00:19:50;102476.19;;;11.77;76.08
68075;BME280;54864;52.002;5.468;2023-05-25T00:20:54;102470.94;;;11.75;75.90
68075;BME280;54864;52.002;5.468;2023-05-25T00:21:55;102474.44;;;11.76;76.07
68075;BME280;54864;52.002;5.468;2023-05-25T00:22:56;102472.66;;;11.77;76.01
68075;BME280;54864;52.002;5.468;2023-05-25T00:24:00;102469.13;;;11.79;75.92
68075;BME280;54864;52.002;5.468;2023-05-25T00:25:06;102468.25;;;11.79;75.80
68075;BME280;54864;52.002;5.468;2023-05-25T00:26:07;102470.88;;;11.77;75.80
68075;BME280;54864;52.002;5.468;2023-05-25T00:27:09;102467.50;;;11.72;76.03
68075;BME280;54864;52.002;5.468;2023-05-25T00:28:09;102466.59;;;11.73;76.26
68075;BME280;54864;52.002;5.468;2023-05-25T00:29:14;102477.06;;;11.76;76.32
68075;BME280;54864;52.002;5.468;2023-05-25T00:30:15;102474.44;;;11.78;76.21
68075;BME280;54864;52.002;5.468;2023-05-25T00:31:18;102472.78;;;11.72;76.79
68075;BME280;54864;52.002;5.468;2023-05-25T00:32:22;102481.56;;;11.72;77.14
68075;BME280;54864;52.002;5.468;2023-05-25T00:33:24;102477.22;;;11.68;77.33
68075;BME280;54864;52.002;5.468;2023-05-25T00:34:24;102473.69;;;11.71;77.38
68075;BME280;54864;52.002;5.468;2023-05-25T00:35:29;102468.41;;;11.69;77.41
68075;BME280;54864;52.002;5.468;2023-05-25T00:36:30;102466.50;;;11.76;77.08
68075;BME280;54864;52.002;5.468;2023-05-25T00:37:34;102471.78;;;11.78;76.85
68075;BME280;54864;52.002;5.468;2023-05-25T00:38:38;102472.66;;;11.78;77.12
68075;BME280;54864;52.002;5.468;2023-05-25T00:39:39;102469.94;;;11.81;77.04
68075;BME280;54864;52.002;5.468;2023-05-25T00:40:40;102470.97;;;11.74;77.14
68075;BME280;54864;52.002;5.468;2023-05-25T00:41:43;102464.88;;;11.70;77.01
68075;BME280;54864;52.002;5.468;2023-05-25T00:42:47;102465.63;;;11.75;76.89
68075;BME280;54864;52.002;5.468;2023-05-25T00:43:49;102467.34;;;11.80;76.88
68075;BME280;54864;52.002;5.468;2023-05-25T00:44:49;102472.63;;;11.80;76.90
68075;BME280;54864;52.002;5.468;2023-05-25T00:45:52;102472.59;;;11.81;76.92
68075;BME280;54864;52.002;5.468;2023-05-25T00:46:54;102480.47;;;11.83;76.93
68075;BME280;54864;52.002;5.468;2023-05-25T00:47:57;102471.59;;;11.85;76.53
68075;BME280;54864;52.002;5.468;2023-05-25T00:48:58;102475.13;;;11.86;76.34
68075;BME280;54864;52.002;5.468;2023-05-25T00:50:00;102473.41;;;11.83;76.33
68075;BME280;54864;52.002;5.468;2023-05-25T00:51:01;102470.69;;;11.86;76.48
68075;BME280;54864;52.002;5.468;2023-05-25T00:52:04;102468.03;;;11.88;76.06
68075;BME280;54864;52.002;5.468;2023-05-25T00:53:05;102472.47;;;11.86;75.86
68075;BME280;54864;52.002;5.468;2023-05-25T00:54:07;102471.59;;;11.85;75.49
68075;BME280;54864;52.002;5.468;2023-05-25T00:55:09;102469.88;;;11.84;75.83
68075;BME280;54864;52.002;5.468;2023-05-25T00:56:14;102471.56;;;11.87;75.68
68075;BME280;54864;52.002;5.468;2023-05-25T00:57:20;102471.59;;;11.85;75.48
68075;BME280;54864;52.002;5.468;2023-05-25T00:58:26;102466.41;;;11.82;75.44
68075;BME280;54864;52.002;5.468;2023-05-25T00:59:32;102464.66;;;11.81;75.47
68075;BME280;54864;52.002;5.468;2023-05-25T01:00:36;102465.53;;;11.82;75.68
68075;BME280;54864;52.002;5.468;2023-05-25T01:01:39;102470.97;;;11.74;75.44
68075;BME280;54864;52.002;5.468;2023-05-25T01:02:44;102470.94;;;11.75;75.59
68075;BME280;54864;52.002;5.468;2023-05-25T01:03:47;102472.69;;;11.75;75.54
68075;BME280;54864;52.002;5.468;2023-05-25T01:04:53;102474.59;;;11.68;75.37
68075;BME280;54864;52.002;5.468;2023-05-25T01:05:59;102478.09;;;11.69;75.50
68075;BME280;54864;52.002;5.468;2023-05-25T01:07:04;102471.03;;;11.69;75.30
68075;BME280;54864;52.002;5.468;2023-05-25T01:08:07;102479.06;;;11.65;75.82
68075;BME280;54864;52.002;5.468;2023-05-25T01:09:10;102476.59;;;11.57;75.82
68075;BME280;54864;52.002;5.468;2023-05-25T01:10:13;102481.00;;;11.58;75.57
68075;BME280;54864;52.002;5.468;2023-05-25T01:11:19;102478.34;;;11.58;75.67
68075;BME280;54864;52.002;5.468;2023-05-25T01:12:26;102481.94;;;11.56;75.43
68075;BME280;54864;52.002;5.468;2023-05-25T01:13:28;102484.66;;;11.51;75.50
68075;BME280;54864;52.002;5.468;2023-05-25T01:14:30;102484.66;;;11.51;75.49
68075;BME280;54864;52.002;5.468;2023-05-25T01:15:33;102482.06;;;11.50;75.58
68075;BME280;54864;52.002;5.468;2023-05-25T01:16:34;102477.78;;;11.44;75.49
68075;BME280;54864;52.002;5.468;2023-05-25T01:17:42;102487.44;;;11.45;75.32
68075;BME280;54864;52.002;5.468;2023-05-25T01:18:43;102480.44;;;11.44;75.36
68075;BME280;54864;52.002;5.468;2023-05-25T01:19:47;102480.72;;;11.32;75.59
68075;BME280;54864;52.002;5.468;2023-05-25T01:20:58;102484.19;;;11.34;75.64
68075;BME280;54864;52.002;5.468;2023-05-25T01:22:18;102487.66;;;11.36;75.90
68075;BME280;54864;52.002;5.468;2023-05-25T01:23:25;102486.75;;;11.37;75.91
68075;BME280;54864;52.002;5.468;2023-05-25T01:24:33;102490.38;;;11.33;76.04
68075;BME280;54864;52.002;5.468;2023-05-25T01:25:43;102492.03;;;11.37;75.86
68075;BME280;54864;52.002;5.468;2023-05-25T01:26:54;102487.84;;;11.27;76.35
68075;BME280;54864;52.002;5.468;2023-05-25T01:27:58;102495.03;;;11.20;76.27
68075;BME280;54864;52.002;5.468;2023-05-25T01:29:05;102496.78;;;11.21;76.65
68075;BME280;54864;52.002;5.468;2023-05-25T01:30:13;102500.34;;;11.19;76.71
68075;BME280;54864;52.002;5.468;2023-05-25T01:31:20;102500.53;;;11.09;77.03
68075;BME280;54864;52.002;5.468;2023-05-25T01:32:22;102495.19;;;11.13;76.63
68075;BME280;54864;52.002;5.468;2023-05-25T01:33:24;102502.19;;;11.15;76.67
68075;BME280;54864;52.002;5.468;2023-05-25T01:34:27;102507.41;;;11.18;76.22
68075;BME280;54864;52.002;5.468;2023-05-25T01:35:30;102502.19;;;11.15;76.34
68075;BME280;54864;52.002;5.468;2023-05-25T01:36:32;102503.97;;;11.15;76.01
68075;BME280;54864;52.002;5.468;2023-05-25T01:37:34;102496.03;;;11.15;76.11
68075;BME280;54864;52.002;5.468;2023-05-25T01:38:36;102508.38;;;11.14;76.11
68075;BME280;54864;52.002;5.468;2023-05-25T01:39:38;102508.41;;;11.13;75.93
68075;BME280;54864;52.002;5.468;2023-05-25T01:40:39;102505.69;;;11.16;75.91
68075;BME280;54864;52.002;5.468;2023-05-25T01:41:41;102504.13;;;11.07;76.23
68075;BME280;54864;52.002;5.468;2023-05-25T01:42:42;102500.56;;;11.08;76.21
68075;BME280;54864;52.002;5.468;2023-05-25T01:43:44;102506.75;;;11.07;76.45
68075;BME280;54864;52.002;5.468;2023-05-25T01:44:45;102510.34;;;11.01;76.24
68075;BME280;54864;52.002;5.468;2023-05-25T01:45:47;102505.09;;;11.00;76.36
68075;BME280;54864;52.002;5.468;2023-05-25T01:46:51;102505.13;;;10.98;76.50
68075;BME280;54864;52.002;5.468;2023-05-25T01:48:00;102512.13;;;11.01;76.62
68075;BME280;54864;52.002;5.468;2023-05-25T01:49:10;102501.59;;;10.99;76.32
68075;BME280;54864;52.002;5.468;2023-05-25T01:50:17;102505.09;;;11.00;76.24
68075;BME280;54864;52.002;5.468;2023-05-25T01:51:30;102508.72;;;10.96;76.42
68075;BME280;54864;52.002;5.468;2023-05-25T01:52:37;102518.25;;;11.03;76.34
68075;BME280;54864;52.002;5.468;2023-05-25T01:53:49;102515.75;;;10.95;76.54
68075;BME280;54864;52.002;5.468;2023-05-25T01:55:00;102516.63;;;10.96;76.65
68075;BME280;54864;52.002;5.468;2023-05-25T01:56:05;102519.34;;;10.91;76.66
68075;BME280;54864;52.002;5.468;2023-05-25T01:57:12;102508.88;;;10.88;76.60
68075;BME280;54864;52.002;5.468;2023-05-25T01:58:16;102505.16;;;10.97;76.26
68075;BME280;54864;52.002;5.468;2023-05-25T01:59:19;102509.66;;;10.92;76.54
68075;BME280;54864;52.002;5.468;2023-05-25T02:00:22;102517.78;;;10.83;77.21
68075;BME280;54864;52.002;5.468;2023-05-25T02:01:26;102512.50;;;10.83;77.25
68075;BME280;54864;52.002;5.468;2023-05-25T02:02:29;102515.03;;;10.87;76.95
68075;BME280;54864;52.002;5.468;2023-05-25T02:03:30;102514.19;;;10.85;77.22
68075;BME280;54864;52.002;5.468;2023-05-25T02:04:32;102505.56;;;10.77;77.87
68075;BME280;54864;52.002;5.468;2023-05-25T02:05:33;102512.50;;;10.83;77.49
68075;BME280;54864;52.002;5.468;2023-05-25T02:06:35;102514.22;;;10.84;77.47
68075;BME280;54864;52.002;5.468;2023-05-25T02:07:41;102510.75;;;10.82;77.66
68075;BME280;54864;52.002;5.468;2023-05-25T02:08:43;102506.31;;;10.84;77.86
68075;BME280;54864;52.002;5.468;2023-05-25T02:09:45;102514.22;;;10.84;77.79
68075;BME280;54864;52.002;5.468;2023-05-25T02:10:46;102509.88;;;10.81;77.56
68075;BME280;54864;52.002;5.468;2023-05-25T02:11:47;102508.97;;;10.82;77.61
68075;BME280;54864;52.002;5.468;2023-05-25T02:12:52;102517.72;;;10.86;77.47
68075;BME280;54864;52.002;5.468;2023-05-25T02:13:53;102504.53;;;10.84;77.40
68075;BME280;54864;52.002;5.468;2023-05-25T02:14:57;102508.97;;;10.82;77.22
68075;BME280;54864;52.002;5.468;2023-05-25T02:15:58;102508.94;;;10.84;77.03
68075;BME280;54864;52.002;5.468;2023-05-25T02:17:00;102516.13;;;10.77;76.95
68075;BME280;54864;52.002;5.468;2023-05-25T02:18:01;102515.22;;;10.78;76.95
68075;BME280;54864;52.002;5.468;2023-05-25T02:19:04;102512.69;;;10.72;77.06
68075;BME280;54864;52.002;5.468;2023-05-25T02:20:10;102509.03;;;10.79;76.75
68075;BME280;54864;52.002;5.468;2023-05-25T02:21:12;102512.56;;;10.79;76.45
68075;BME280;54864;52.002;5.468;2023-05-25T02:22:13;102513.44;;;10.78;76.67
68075;BME280;54864;52.002;5.468;2023-05-25T02:23:17;102507.28;;;10.79;76.44
68075;BME280;54864;52.002;5.468;2023-05-25T02:24:18;102510.78;;;10.80;76.23
68075;BME280;54864;52.002;5.468;2023-05-25T02:25:20;102509.97;;;10.76;76.35
68075;BME280;54864;52.002;5.468;2023-05-25T02:26:20;102512.66;;;10.73;76.58
68075;BME280;54864;52.002;5.468;2023-05-25T02:27:22;102519.75;;;10.71;76.56
68075;BME280;54864;52.002;5.468;2023-05-25T02:28:23;102512.00;;;10.62;77.59
68075;BME280;54864;52.002;5.468;2023-05-25T02:29:25;102515.44;;;10.66;77.43
68075;BME280;54864;52.002;5.468;2023-05-25T02:30:25;102511.91;;;10.67;76.76
68075;BME280;54864;52.002;5.468;2023-05-25T02:31:27;102523.34;;;10.67;76.79
68075;BME280;54864;52.002;5.468;2023-05-25T02:32:28;102519.88;;;10.64;76.46
68075;BME280;54864;52.002;5.468;2023-05-25T02:33:30;102519.94;;;10.61;77.15
68075;BME280;54864;52.002;5.468;2023-05-25T02:34:36;102521.72;;;10.60;76.95
68075;BME280;54864;52.002;5.468;2023-05-25T02:35:38;102520.91;;;10.55;77.01
68075;BME280;54864;52.002;5.468;2023-05-25T02:36:39;102521.81;;;10.54;76.89
68075;BME280;54864;52.002;5.468;2023-05-25T02:37:42;102522.72;;;10.53;77.00
68075;BME280;54864;52.002;5.468;2023-05-25T02:38:44;102517.50;;;10.50;77.23
68075;BME280;54864;52.002;5.468;2023-05-25T02:39:49;102521.97;;;10.45;77.48
68075;BME280;54864;52.002;5.468;2023-05-25T02:40:50;102525.44;;;10.48;77.27
68075;BME280;54864;52.002;5.468;2023-05-25T02:41:51;102524.53;;;10.50;76.84
68075;BME280;54864;52.002;5.468;2023-05-25T02:42:55;102521.25;;;10.35;77.59
68075;BME280;54864;52.002;5.468;2023-05-25T02:43:56;102525.56;;;10.39;77.56
68075;BME280;54864;52.002;5.468;2023-05-25T02:44:58;102518.53;;;10.41;77.20
68075;BME280;54864;52.002;5.468;2023-05-25T02:46:00;102520.31;;;10.38;77.38
68075;BME280;54864;52.002;5.468;2023-05-25T02:47:03;102515.91;;;10.38;77.11
68075;BME280;54864;52.002;5.468;2023-05-25T02:48:05;102512.38;;;10.39;77.15
68075;BME280;54864;52.002;5.468;2023-05-25T02:49:06;102513.28;;;10.38;77.13
68075;BME280;54864;52.002;5.468;2023-05-25T02:50:08;102513.41;;;10.31;77.52
68075;BME280;54864;52.002;5.468;2023-05-25T02:51:09;102512.53;;;10.30;77.52
68075;BME280;54864;52.002;5.468;2023-05-25T02:52:11;102514.25;;;10.33;77.89
68075;BME280;54864;52.002;5.468;2023-05-25T02:53:12;102516.00;;;10.34;77.92
68075;BME280;54864;52.002;5.468;2023-05-25T02:54:15;102513.44;;;10.29;78.30
68075;BME280;54864;52.002;5.468;2023-05-25T02:55:16;102513.38;;;10.32;78.27
68075;BME280;54864;52.002;5.468;2023-05-25T02:56:18;102517.66;;;10.39;78.23
68075;BME280;54864;52.002;5.468;2023-05-25T02:57:21;102515.88;;;10.40;78.32
68075;BME280;54864;52.002;5.468;2023-05-25T02:58:23;102515.88;;;10.40;78.20
68075;BME280;54864;52.002;5.468;2023-05-25T02:59:23;102522.09;;;10.37;78.54
68075;BME280;54864;52.002;5.468;2023-05-25T03:00:25;102519.47;;;10.36;78.72
68075;BME280;54864;52.002;5.468;2023-05-25T03:01:26;102516.91;;;10.31;78.61
68075;BME280;54864;52.002;5.468;2023-05-25T03:02:32;102515.09;;;10.35;78.42
68075;BME280;54864;52.002;5.468;2023-05-25T03:03:36;102526.56;;;10.32;78.89
68075;BME280;54864;52.002;5.468;2023-05-25T03:04:37;102521.38;;;10.28;79.02
68075;BME280;54864;52.002;5.468;2023-05-25T03:05:38;102523.13;;;10.27;79.38
68075;BME280;54864;52.002;5.468;2023-05-25T03:06:40;102519.59;;;10.30;79.75
68075;BME280;54864;52.002;5.468;2023-05-25T03:07:41;102521.31;;;10.31;79.61
68075;BME280;54864;52.002;5.468;2023-05-25T03:08:42;102523.06;;;10.32;79.76
68075;BME280;54864;52.002;5.468;2023-05-25T03:09:44;102520.31;;;10.38;79.35
68075;BME280;54864;52.002;5.468;2023-05-25T03:10:46;102524.81;;;10.33;79.28
68075;BME280;54864;52.002;5.468;2023-05-25T03:11:47;102520.31;;;10.38;79.31
68075;BME280;54864;52.002;5.468;2023-05-25T03:12:49;102529.06;;;10.41;79.21
68075;BME280;54864;52.002;5.468;2023-05-25T03:13:52;102529.97;;;10.39;79.15
68075;BME280;54864;52.002;5.468;2023-05-25T03:14:55;102529.91;;;10.43;78.72
68075;BME280;54864;52.002;5.468;2023-05-25T03:15:55;102528.28;;;10.35;79.10
68075;BME280;54864;52.002;5.468;2023-05-25T03:17:00;102526.53;;;10.34;79.47
68075;BME280;54864;52.002;5.468;2023-05-25T03:18:00;102530.03;;;10.36;79.29
68075;BME280;54864;52.002;5.468;2023-05-25T03:19:02;102529.22;;;10.31;80.01
68075;BME280;54864;52.002;5.468;2023-05-25T03:20:06;102530.03;;;10.34;79.78
68075;BME280;54864;52.002;5.468;2023-05-25T03:21:09;102526.50;;;10.35;80.17
68075;BME280;54864;52.002;5.468;2023-05-25T03:22:10;102525.59;;;10.38;80.31
68075;BME280;54864;52.002;5.468;2023-05-25T03:23:12;102522.97;;;10.36;80.40
68075;BME280;54864;52.002;5.468;2023-05-25T03:24:13;102531.88;;;10.31;80.55
68075;BME280;54864;52.002;5.468;2023-05-25T03:25:16;102527.50;;;10.30;81.33
68075;BME280;54864;52.002;5.468;2023-05-25T03:26:16;102534.41;;;10.35;81.24
68075;BME280;54864;52.002;5.468;2023-05-25T03:27:18;102531.75;;;10.37;81.27
68075;BME280;54864;52.002;5.468;2023-05-25T03:28:25;102535.25;;;10.39;80.61
68075;BME280;54864;52.002;5.468;2023-05-25T03:29:26;102538.75;;;10.41;80.61
68075;BME280;54864;52.002;5.468;2023-05-25T03:30:27;102542.22;;;10.44;80.55
68075;BME280;54864;52.002;5.468;2023-05-25T03:31:29;102543.16;;;10.39;80.13
68075;BME280;54864;52.002;5.468;2023-05-25T03:32:33;102557.97;;;10.47;79.91
68075;BME280;54864;52.002;5.468;2023-05-25T03:33:35;102548.28;;;10.48;79.43
68075;BME280;54864;52.002;5.468;2023-05-25T03:34:37;102549.16;;;10.48;79.02
68075;BME280;54864;52.002;5.468;2023-05-25T03:35:37;102560.59;;;10.49;79.16
68075;BME280;54864;52.002;5.468;2023-05-25T03:36:39;102550.06;;;10.47;79.06
68075;BME280;54864;52.002;5.468;2023-05-25T03:37:45;102550.97;;;10.46;79.17
68075;BME280;54864;52.002;5.468;2023-05-25T03:38:45;102553.56;;;10.48;79.15
68075;BME280;54864;52.002;5.468;2023-05-25T03:39:47;102543.06;;;10.46;79.02
68075;BME280;54864;52.002;5.468;2023-05-25T03:40:52;102550.06;;;10.47;78.93
68075;BME280;54864;52.002;5.468;2023-05-25T03:41:54;102549.19;;;10.47;79.09
68075;BME280;54864;52.002;5.468;2023-05-25T03:42:55;102546.63;;;10.44;79.01
68075;BME280;54864;52.002;5.468;2023-05-25T03:43:56;102540.50;;;10.42;79.17
68075;BME280;54864;52.002;5.468;2023-05-25T03:44:57;102545.72;;;10.45;79.11
68075;BME280;54864;52.002;5.468;2023-05-25T03:45:59;102544.78;;;10.47;79.15
68075;BME280;54864;52.002;5.468;2023-05-25T03:46:59;102541.25;;;10.48;79.08
68075;BME280;54864;52.002;5.468;2023-05-25T03:48:01;102546.53;;;10.48;78.80
68075;BME280;54864;52.002;5.468;2023-05-25T03:49:02;102548.22;;;10.53;78.57
68075;BME280;54864;52.002;5.468;2023-05-25T03:50:04;102547.41;;;10.49;78.52
68075;BME280;54864;52.002;5.468;2023-05-25T03:51:06;102546.59;;;10.45;78.74
68075;BME280;54864;52.002;5.468;2023-05-25T03:52:08;102553.59;;;10.46;79.07
68075;BME280;54864;52.002;5.468;2023-05-25T03:53:11;102549.19;;;10.47;79.12
68075;BME280;54864;52.002;5.468;2023-05-25T03:54:13;102555.25;;;10.52;78.82
68075;BME280;54864;52.002;5.468;2023-05-25T03:55:13;102545.59;;;10.51;78.84
68075;BME280;54864;52.002;5.468;2023-05-25T03:56:16;102552.56;;;10.55;78.67
68075;BME280;54864;52.002;5.468;2023-05-25T03:57:21;102550.88;;;10.51;78.86
68075;BME280;54864;52.002;5.468;2023-05-25T03:58:21;102551.75;;;10.52;78.82
68075;BME280;54864;52.002;5.468;2023-05-25T03:59:23;102549.91;;;10.57;78.93
68075;BME280;54864;52.002;5.468;2023-05-25T04:00:25;102550.81;;;10.56;79.01
68075;BME280;54864;52.002;5.468;2023-05-25T04:01:33;102547.28;;;10.55;78.93
68075;BME280;54864;52.002;5.468;2023-05-25T04:02:37;102558.78;;;10.53;79.19
68075;BME280;54864;52.002;5.468;2023-05-25T04:03:39;102560.53;;;10.52;78.75
68075;BME280;54864;52.002;5.468;2023-05-25T04:04:39;102552.69;;;10.47;79.50
68075;BME280;54864;52.002;5.468;2023-05-25T04:05:42;102557.97;;;10.47;79.45
68075;BME280;54864;52.002;5.468;2023-05-25T04:06:44;102554.41;;;10.50;79.83
68075;BME280;54864;52.002;5.468;2023-05-25T04:07:48;102554.38;;;10.52;79.81
68075;BME280;54864;52.002;5.468;2023-05-25T04:08:48;102553.59;;;10.46;80.16
68075;BME280;54864;52.002;5.468;2023-05-25T04:09:50;102552.66;;;10.51;80.25
68075;BME280;54864;52.002;5.468;2023-05-25T04:10:51;102557.00;;;10.53;80.34
68075;BME280;54864;52.002;5.468;2023-05-25T04:11:54;102553.44;;;10.56;80.34
68075;BME280;54864;52.002;5.468;2023-05-25T04:12:55;102559.56;;;10.58;80.42
68075;BME280;54864;52.002;5.468;2023-05-25T04:13:58;102557.88;;;10.54;80.47
68075;BME280;54864;52.002;5.468;2023-05-25T04:14:59;102550.81;;;10.56;80.50
68075;BME280;54864;52.002;5.468;2023-05-25T04:16:03;102549.09;;;10.53;80.49
68075;BME280;54864;52.002;5.468;2023-05-25T04:17:03;102554.22;;;10.61;80.46
68075;BME280;54864;52.002;5.468;2023-05-25T04:18:05;102560.41;;;10.60;80.85
68075;BME280;54864;52.002;5.468;2023-05-25T04:19:06;102558.63;;;10.60;80.74
68075;BME280;54864;52.002;5.468;2023-05-25T04:20:08;102565.66;;;10.61;80.39
68075;BME280;54864;52.002;5.468;2023-05-25T04:21:12;102559.50;;;10.61;80.67
68075;BME280;54864;52.002;5.468;2023-05-25T04:22:14;102559.41;;;10.65;80.24
68075;BME280;54864;52.002;5.468;2023-05-25T04:23:15;102558.53;;;10.66;80.29
68075;BME280;54864;52.002;5.468;2023-05-25T04:24:19;102562.78;;;10.73;80.25
68075;BME280;54864;52.002;5.468;2023-05-25T04:25:20;102561.94;;;10.71;80.21
68075;BME280;54864;52.002;5.468;2023-05-25T04:26:22;102565.44;;;10.73;79.84
68075;BME280;54864;52.002;5.468;2023-05-25T04:27:27;102560.41;;;10.60;81.05
68075;BME280;54864;52.002;5.468;2023-05-25T04:28:28;102565.47;;;10.72;80.74
68075;BME280;54864;52.002;5.468;2023-05-25T04:29:29;102569.00;;;10.71;80.59
68075;BME280;54864;52.002;5.468;2023-05-25T04:30:33;102552.38;;;10.66;80.62
68075;BME280;54864;52.002;5.468;2023-05-25T04:31:35;102568.91;;;10.75;80.61
68075;BME280;54864;52.002;5.468;2023-05-25T04:32:39;102574.06;;;10.82;80.62
68075;BME280;54864;52.002;5.468;2023-05-25T04:33:42;102565.25;;;10.83;80.30
68075;BME280;54864;52.002;5.468;2023-05-25T04:34:44;102567.00;;;10.84;79.96
68075;BME280;54864;52.002;5.468;2023-05-25T04:35:52;102563.56;;;10.78;80.05
68075;BME280;54864;52.002;5.468;2023-05-25T04:36:59;102571.47;;;10.80;80.53
68075;BME280;54864;52.002;5.468;2023-05-25T04:38:04;102582.81;;;10.85;80.18
68075;BME280;54864;52.002;5.468;2023-05-25T04:39:06;102568.66;;;10.89;80.21
68075;BME280;54864;52.002;5.468;2023-05-25T04:40:10;102575.66;;;10.90;80.05
68075;BME280;54864;52.002;5.468;2023-05-25T04:41:13;102567.72;;;10.92;80.26
68075;BME280;54864;52.002;5.468;2023-05-25T04:42:14;102572.09;;;10.93;80.20
68075;BME280;54864;52.002;5.468;2023-05-25T04:43:17;102571.16;;;10.97;80.16
68075;BME280;54864;52.002;5.468;2023-05-25T04:44:19;102573.91;;;10.91;80.36
68075;BME280;54864;52.002;5.468;2023-05-25T04:45:21;102577.34;;;10.94;80.62
68075;BME280;54864;52.002;5.468;2023-05-25T04:46:23;102574.59;;;11.00;80.59
68075;BME280;54864;52.002;5.468;2023-05-25T04:47:25;102570.22;;;10.99;80.06
68075;BME280;54864;52.002;5.468;2023-05-25T04:48:25;102574.75;;;10.93;80.50
68075;BME280;54864;52.002;5.468;2023-05-25T04:49:28;102576.38;;;11.00;80.42
68075;BME280;54864;52.002;5.468;2023-05-25T04:50:29;102579.09;;;10.95;80.74
68075;BME280;54864;52.002;5.468;2023-05-25T04:51:31;102583.31;;;11.07;80.62
68075;BME280;54864;52.002;5.468;2023-05-25T04:52:32;102579.66;;;11.14;80.43
68075;BME280;54864;52.002;5.468;2023-05-25T04:53:33;102583.19;;;11.13;80.29
68075;BME280;54864;52.002;5.468;2023-05-25T04:54:34;102583.94;;;11.20;79.98
68075;BME280;54864;52.002;5.468;2023-05-25T04:55:36;102589.22;;;11.20;79.93
68075;BME280;54864;52.002;5.468;2023-05-25T04:56:37;102589.16;;;11.23;79.88
68075;BME280;54864;52.002;5.468;2023-05-25T04:57:39;102592.03;;;11.10;80.32
68075;BME280;54864;52.002;5.468;2023-05-25T04:58:41;102598.84;;;11.22;80.29
68075;BME280;54864;52.002;5.468;2023-05-25T04:59:43;102588.16;;;11.28;79.93
68075;BME280;54864;52.002;5.468;2023-05-25T05:00:43;102598.69;;;11.30;80.06
68075;BME280;54864;52.002;5.468;2023-05-25T05:01:45;102602.13;;;11.33;79.77
68075;BME280;54864;52.002;5.468;2023-05-25T05:02:46;102603.91;;;11.33;79.65
68075;BME280;54864;52.002;5.468;2023-05-25T05:03:48;102612.81;;;11.27;80.19
68075;BME280;54864;52.002;5.468;2023-05-25T05:04:48;102611.88;;;11.30;80.11
68075;BME280;54864;52.002;5.468;2023-05-25T05:05:52;102610.94;;;11.34;80.50
68075;BME280;54864;52.002;5.468;2023-05-25T05:06:53;102612.53;;;11.41;80.14
68075;BME280;54864;52.002;5.468;2023-05-25T05:07:55;102609.84;;;11.44;80.10
68075;BME280;54864;52.002;5.468;2023-05-25T05:08:57;102620.38;;;11.46;79.67
68075;BME280;54864;52.002;5.468;2023-05-25T05:09:58;102609.84;;;11.44;79.79
68075;BME280;54864;52.002;5.468;2023-05-25T05:10:59;102616.69;;;11.54;79.73
68075;BME280;54864;52.002;5.468;2023-05-25T05:12:01;102614.97;;;11.52;79.88
68075;BME280;54864;52.002;5.468;2023-05-25T05:13:02;102613.16;;;11.54;80.01
68075;BME280;54864;52.002;5.468;2023-05-25T05:14:06;102618.69;;;11.41;80.18
68075;BME280;54864;52.002;5.468;2023-05-25T05:15:07;102616.91;;;11.43;80.28
68075;BME280;54864;52.002;5.468;2023-05-25T05:16:09;102619.38;;;11.51;80.50
68075;BME280;54864;52.002;5.468;2023-05-25T05:17:09;102622.09;;;11.48;80.89
68075;BME280;54864;52.002;5.468;2023-05-25T05:18:11;102621.03;;;11.57;80.58
68075;BME280;54864;52.002;5.468;2023-05-25T05:19:19;102612.13;;;11.61;80.42
68075;BME280;54864;52.002;5.468;2023-05-25T05:20:21;102615.06;;;11.47;80.44
68075;BME280;54864;52.002;5.468;2023-05-25T05:21:22;102612.16;;;11.59;80.72
68075;BME280;54864;52.002;5.468;2023-05-25T05:22:26;102617.44;;;11.59;80.72
68075;BME280;54864;52.002;5.468;2023-05-25T05:23:28;102611.22;;;11.62;80.64
68075;BME280;54864;52.002;5.468;2023-05-25T05:24:30;102612.91;;;11.66;80.74
68075;BME280;54864;52.002;5.468;2023-05-25T05:25:33;102616.47;;;11.63;81.16
68075;BME280;54864;52.002;5.468;2023-05-25T05:26:40;102617.25;;;11.68;80.89
68075;BME280;54864;52.002;5.468;2023-05-25T05:27:41;102617.16;;;11.74;80.60